Minneapolis, Minnesota
Traffic Map
Current Weather Conditions
Minneapolis, Minnesota
Overcast Light Snow
Overcast
28°
Feels Like: 18°
Wind Chill: 18° Ceiling: 3300
Heat Index: 28° Visibility: 3mi
Dew Point: 25° Wind: 12mph
Humidity: 88% Direction: 360° (N)
Pressure: 30.05in Gusts: 0mph
Raw Report DataKMSP 270508Z 36010KT 3SM -SN BR SCT011 OVC033 M02/M04 A3005 RMK AO2 SFC VIS 6 P0000 T10221039
Traffic Incident Summary
Active as of:
Severity:
Category:
InformationThere was an issue retrieving the traffic information for this location. Please try a different location or try again shortly.
Advertisements
Track Severe Weather on mobile